Time;durP1;ratioP1;P1;durP2;ratioP2;P2;SDS_P1;SDS_P2;PMS_P1;PMS_P2;Temp;Humidity;BMP_temperature;BMP_pressure;BME280_temperature;BME280_humidity;BME280_pressure;Samples;Min_cycle;Max_cycle;Signal;HPM_P1;HPM_P2
2022/10/31 00:00:56;;;;;;;6.18;3.20;;;;;18.50;101883.00;;;;5055835;28;20725;-78
2022/10/31 00:03:24;;;;;;;5.63;3.13;;;;;18.50;101880.00;;;;5049402;28;20199;-78
2022/10/31 00:05:53;;;;;;;5.85;3.17;;;;;18.50;101888.00;;;;5049177;28;20192;-78
2022/10/31 00:08:20;;;;;;;7.28;3.35;;;;;18.50;101886.00;;;;5050443;28;20795;-78
2022/10/31 00:10:48;;;;;;;8.85;3.55;;;;;18.50;101885.00;;;;5054970;28;20206;-78
2022/10/31 00:13:16;;;;;;;4.32;3.13;;;;;18.50;101884.00;;;;5067947;28;20223;-78
2022/10/31 00:15:43;;;;;;;5.35;3.17;;;;;18.40;101887.00;;;;5048228;28;20202;-78
2022/10/31 00:18:11;;;;;;;3.95;3.15;;;;;18.40;101886.00;;;;5056727;28;20198;-78
2022/10/31 00:20:39;;;;;;;5.30;3.25;;;;;18.40;101878.00;;;;5049027;28;20187;-78
2022/10/31 00:23:08;;;;;;;4.95;2.95;;;;;18.40;101889.00;;;;5048990;28;20198;-78
2022/10/31 00:25:41;;;;;;;4.03;3.53;;;;;18.40;101882.00;;;;5054098;28;20202;-79
2022/10/31 00:28:10;;;;;;;3.25;2.83;;;;;18.40;101891.00;;;;5060301;28;20223;-78
2022/10/31 00:30:37;;;;;;;4.72;3.25;;;;;18.40;101899.00;;;;5069088;28;20206;-78
2022/10/31 00:33:05;;;;;;;5.43;3.75;;;;;18.40;101890.00;;;;5049482;28;20222;-78
2022/10/31 00:35:32;;;;;;;5.82;3.38;;;;;18.40;101891.00;;;;5055835;28;20261;-79
2022/10/31 00:38:00;;;;;;;4.68;3.55;;;;;18.40;101893.00;;;;5050259;28;20207;-78
2022/10/31 00:40:28;;;;;;;5.35;3.35;;;;;18.30;101890.00;;;;5048536;28;20200;-78
2022/10/31 00:42:56;;;;;;;7.35;3.38;;;;;18.40;101906.00;;;;5059472;28;20199;-78
2022/10/31 00:45:23;;;;;;;7.95;4.43;;;;;18.40;101896.00;;;;5056808;28;20204;-78
2022/10/31 00:47:51;;;;;;;8.90;3.60;;;;;18.30;101897.00;;;;5059227;28;20191;-78
2022/10/31 00:50:18;;;;;;;5.57;3.58;;;;;18.30;101902.00;;;;5059757;28;20198;-78
2022/10/31 00:52:45;;;;;;;5.35;3.47;;;;;18.30;101908.00;;;;5056952;28;20231;-78
2022/10/31 00:55:12;;;;;;;5.82;4.38;;;;;18.30;101904.00;;;;5061288;28;20196;-78
2022/10/31 00:57:41;;;;;;;8.60;4.00;;;;;18.30;101904.00;;;;5052203;28;20200;-78
2022/10/31 01:00:10;;;;;;;5.05;3.42;;;;;18.30;101900.00;;;;5059926;28;20199;-78
2022/10/31 01:02:37;;;;;;;7.00;3.70;;;;;18.30;101903.00;;;;5050794;28;20195;-78
2022/10/31 01:05:05;;;;;;;4.82;4.10;;;;;18.30;101900.00;;;;5059163;28;20205;-78
2022/10/31 01:07:32;;;;;;;5.68;4.18;;;;;18.30;101895.00;;;;5054549;28;20206;-78
2022/10/31 01:09:59;;;;;;;6.55;4.28;;;;;18.20;101899.00;;;;5053071;28;20207;-78
2022/10/31 01:12:26;;;;;;;6.35;4.43;;;;;18.20;101894.00;;;;5051655;28;20215;-78
2022/10/31 01:14:55;;;;;;;4.50;3.65;;;;;18.20;101894.00;;;;5052075;28;20191;-78
2022/10/31 01:17:22;;;;;;;6.47;4.15;;;;;18.20;101883.00;;;;5052434;28;20204;-78
2022/10/31 01:19:52;;;;;;;6.50;3.70;;;;;18.20;101877.00;;;;5052134;28;20195;-78
2022/10/31 01:22:19;;;;;;;8.98;4.47;;;;;18.20;101883.00;;;;5070121;28;20202;-78
2022/10/31 01:24:46;;;;;;;4.88;3.80;;;;;18.20;101865.00;;;;5071554;28;20216;-78
2022/10/31 01:27:13;;;;;;;5.30;3.80;;;;;18.10;101865.00;;;;5066664;28;21128;-78
2022/10/31 01:29:41;;;;;;;7.28;4.05;;;;;18.10;101874.00;;;;5064059;28;20198;-78
2022/10/31 01:32:12;;;;;;;6.10;4.35;;;;;18.10;101862.00;;;;5059845;28;20219;-78
2022/10/31 01:34:39;;;;;;;6.15;4.32;;;;;18.10;101861.00;;;;5056930;28;20227;-79
2022/10/31 01:37:07;;;;;;;6.47;4.38;;;;;18.10;101863.00;;;;5069805;28;20206;-78
2022/10/31 01:39:34;;;;;;;7.70;4.15;;;;;18.00;101857.00;;;;5051734;28;20188;-78
2022/10/31 01:42:01;;;;;;;5.10;3.53;;;;;18.00;101864.00;;;;5051800;28;20192;-78
2022/10/31 01:44:52;;;;;;;5.72;3.97;;;;;17.90;101861.00;;;;5053213;28;20199;-78
2022/10/31 01:47:40;;;;;;;5.28;3.70;;;;;17.90;101857.00;;;;5053685;28;20250;-78
2022/10/31 01:50:19;;;;;;;7.13;3.78;;;;;17.90;101856.00;;;;5046284;28;20203;-78
2022/10/31 01:52:50;;;;;;;5.63;3.72;;;;;17.90;101852.00;;;;5051239;28;20223;-78
2022/10/31 01:55:21;;;;;;;7.07;4.20;;;;;17.90;101847.00;;;;5050834;28;20196;-79
2022/10/31 01:57:52;;;;;;;3.88;3.47;;;;;17.80;101858.00;;;;5053316;28;21264;-79
2022/10/31 02:00:21;;;;;;;5.45;4.03;;;;;17.80;101862.00;;;;5063158;28;20455;-79
2022/10/31 02:02:51;;;;;;;7.28;4.20;;;;;17.80;101855.00;;;;5057399;28;20202;-78
2022/10/31 02:05:21;;;;;;;4.50;3.67;;;;;17.80;101858.00;;;;5054466;28;20196;-79
2022/10/31 02:07:56;;;;;;;5.65;3.63;;;;;17.70;101862.00;;;;5054198;28;20206;-79
2022/10/31 02:10:23;;;;;;;4.65;4.15;;;;;17.70;101854.00;;;;5058820;28;20210;-79
2022/10/31 02:12:53;;;;;;;7.78;4.63;;;;;17.70;101857.00;;;;5051467;28;20226;-79
2022/10/31 02:15:20;;;;;;;6.80;4.70;;;;;17.70;101857.00;;;;5053453;28;20218;-78
2022/10/31 02:17:49;;;;;;;6.82;4.10;;;;;17.60;101851.00;;;;5053338;28;20665;-79
2022/10/31 02:20:18;;;;;;;8.00;4.25;;;;;17.60;101860.00;;;;5069226;28;20202;-79
2022/10/31 02:23:26;;;;;;;5.53;4.20;;;;;17.40;101859.00;;;;5050691;28;20210;-79
2022/10/31 02:26:15;;;;;;;4.97;3.83;;;;;17.40;101864.00;;;;5058922;28;20204;-79
2022/10/31 02:29:02;;;;;;;4.85;3.80;;;;;17.40;101856.00;;;;5059337;28;20196;-79
2022/10/31 02:31:40;;;;;;;6.13;4.25;;;;;17.40;101862.00;;;;5051003;28;20199;-79
2022/10/31 02:34:17;;;;;;;5.70;3.85;;;;;17.40;101855.00;;;;5049363;28;20232;-79
2022/10/31 02:36:53;;;;;;;4.75;4.18;;;;;17.40;101855.00;;;;5066009;28;20214;-79
2022/10/31 02:39:25;;;;;;;4.35;3.67;;;;;17.40;101857.00;;;;5049718;28;20201;-79
2022/10/31 02:42:01;;;;;;;4.68;3.47;;;;;17.40;101862.00;;;;5051499;28;20207;-79
2022/10/31 02:44:35;;;;;;;5.55;3.90;;;;;17.30;101862.00;;;;5049881;28;20656;-79
2022/10/31 02:47:09;;;;;;;7.07;4.22;;;;;17.30;101855.00;;;;5049298;28;20202;-78
2022/10/31 02:49:41;;;;;;;5.97;4.15;;;;;17.30;101863.00;;;;5050744;28;20204;-78
2022/10/31 02:52:18;;;;;;;6.88;4.65;;;;;17.20;101859.00;;;;5058272;28;20199;-79
2022/10/31 02:54:47;;;;;;;4.57;3.90;;;;;17.20;101858.00;;;;5050186;28;20215;-77
2022/10/31 02:57:16;;;;;;;6.50;4.30;;;;;17.20;101859.00;;;;5049247;28;20203;-77
2022/10/31 02:59:48;;;;;;;5.53;3.72;;;;;17.20;101855.00;;;;5053360;28;20659;-77
2022/10/31 03:02:47;;;;;;;4.40;3.72;;;;;17.10;101865.00;;;;5049417;28;20188;-77
2022/10/31 03:05:31;;;;;;;9.55;4.03;;;;;17.10;101862.00;;;;5048406;28;20570;-77
2022/10/31 03:08:07;;;;;;;8.05;4.20;;;;;17.10;101858.00;;;;5052961;28;20192;-77
2022/10/31 03:10:42;;;;;;;4.38;3.83;;;;;17.10;101869.00;;;;5059742;28;20206;-77
2022/10/31 03:13:15;;;;;;;15.93;4.90;;;;;17.10;101858.00;;;;5048830;28;20697;-77
2022/10/31 03:15:46;;;;;;;7.15;3.80;;;;;17.10;101865.00;;;;5048870;28;20199;-77
2022/10/31 03:18:19;;;;;;;8.23;4.22;;;;;17.00;101871.00;;;;5048643;28;20207;-77
2022/10/31 03:20:54;;;;;;;5.78;3.78;;;;;17.00;101869.00;;;;5049577;28;20202;-77
2022/10/31 03:23:23;;;;;;;9.18;3.95;;;;;17.00;101858.00;;;;5048836;28;20713;-77
2022/10/31 03:25:53;;;;;;;5.35;4.13;;;;;17.00;101865.00;;;;5050503;28;20230;-78
2022/10/31 03:28:24;;;;;;;13.65;4.63;;;;;17.00;101861.00;;;;5048414;28;20188;-78
2022/10/31 03:30:54;;;;;;;6.28;4.00;;;;;17.00;101869.00;;;;5060799;28;20203;-78
2022/10/31 03:33:27;;;;;;;5.80;4.28;;;;;17.00;101863.00;;;;5052854;28;20607;-78
2022/10/31 03:35:59;;;;;;;4.75;4.18;;;;;16.90;101861.00;;;;5067165;28;20219;-77
2022/10/31 03:38:27;;;;;;;4.75;4.28;;;;;17.00;101858.00;;;;5049258;28;20195;-77
2022/10/31 03:40:58;;;;;;;5.22;3.95;;;;;16.90;101855.00;;;;5049294;28;20661;-77
2022/10/31 03:43:31;;;;;;;6.93;3.97;;;;;16.90;101862.00;;;;5052589;28;20219;-77
2022/10/31 03:45:58;;;;;;;5.05;3.88;;;;;16.90;101869.00;;;;5062765;28;20204;-77
2022/10/31 03:48:28;;;;;;;4.93;3.72;;;;;16.90;101870.00;;;;5050601;28;20551;-78
2022/10/31 03:51:05;;;;;;;5.93;4.00;;;;;16.80;101862.00;;;;5049349;28;20214;-78
2022/10/31 03:53:35;;;;;;;4.90;4.22;;;;;16.80;101860.00;;;;5056658;28;20214;-78
2022/10/31 03:56:08;;;;;;;4.22;3.50;;;;;16.80;101861.00;;;;5047781;28;20200;-78
2022/10/31 03:58:39;;;;;;;5.88;4.22;;;;;16.80;101862.00;;;;5048750;28;20196;-77
2022/10/31 04:01:09;;;;;;;6.13;3.85;;;;;16.80;101870.00;;;;5048734;28;20196;-77
2022/10/31 04:03:39;;;;;;;7.78;4.43;;;;;16.80;101861.00;;;;5048448;28;20202;-77
2022/10/31 04:06:09;;;;;;;4.57;4.18;;;;;16.80;101864.00;;;;5053566;28;20203;-77
2022/10/31 04:08:43;;;;;;;7.43;4.50;;;;;16.70;101870.00;;;;5061788;28;20195;-77
2022/10/31 04:11:12;;;;;;;6.25;4.43;;;;;16.80;101865.00;;;;5067098;28;20191;-77
2022/10/31 04:13:41;;;;;;;7.50;4.70;;;;;16.80;101864.00;;;;5068683;28;20219;-78
2022/10/31 04:16:10;;;;;;;5.13;4.25;;;;;16.80;101863.00;;;;5057602;28;21708;-77
2022/10/31 04:18:39;;;;;;;4.78;4.00;;;;;16.70;101859.00;;;;5047919;28;20199;-77
2022/10/31 04:21:08;;;;;;;5.80;4.75;;;;;16.70;101860.00;;;;5049477;28;20294;-77
2022/10/31 04:23:37;;;;;;;7.32;4.95;;;;;16.70;101858.00;;;;5055982;28;20413;-77
2022/10/31 04:26:04;;;;;;;5.68;4.40;;;;;16.70;101861.00;;;;5054731;28;20278;-77
2022/10/31 04:28:33;;;;;;;8.23;5.25;;;;;16.70;101859.00;;;;5057163;28;20195;-77
2022/10/31 04:31:00;;;;;;;6.60;4.65;;;;;16.70;101855.00;;;;5058967;28;20195;-77
2022/10/31 04:33:28;;;;;;;5.75;4.75;;;;;16.70;101862.00;;;;5054085;28;20439;-77
2022/10/31 04:35:56;;;;;;;5.20;4.47;;;;;16.70;101862.00;;;;5057300;28;20677;-77
2022/10/31 04:38:23;;;;;;;7.20;4.82;;;;;16.70;101857.00;;;;5067586;28;20684;-77
2022/10/31 04:40:52;;;;;;;5.75;4.70;;;;;16.70;101853.00;;;;5057324;28;20203;-77
2022/10/31 04:43:19;;;;;;;4.93;4.40;;;;;16.70;101854.00;;;;5047349;28;20290;-77
2022/10/31 04:45:46;;;;;;;5.45;4.25;;;;;16.70;101852.00;;;;5048057;28;20195;-77
2022/10/31 04:48:14;;;;;;;9.38;5.32;;;;;16.70;101848.00;;;;5046876;28;20218;-77
2022/10/31 04:50:41;;;;;;;7.30;5.45;;;;;16.70;101851.00;;;;5053954;28;20219;-77
2022/10/31 04:53:10;;;;;;;8.23;4.78;;;;;16.60;101845.00;;;;5058125;28;20203;-77
2022/10/31 04:55:37;;;;;;;6.78;5.25;;;;;16.70;101845.00;;;;5048272;28;20199;-77
2022/10/31 04:58:04;;;;;;;6.10;5.20;;;;;16.60;101843.00;;;;5048869;28;20203;-77
2022/10/31 05:00:32;;;;;;;8.02;5.13;;;;;16.70;101848.00;;;;5056591;28;20218;-77
2022/10/31 05:02:59;;;;;;;8.73;5.30;;;;;16.60;101846.00;;;;5054066;28;20186;-77
2022/10/31 05:05:28;;;;;;;7.10;5.10;;;;;16.60;101844.00;;;;5050753;28;20669;-77
2022/10/31 05:07:56;;;;;;;9.15;4.82;;;;;16.70;101851.00;;;;5048463;28;20199;-78
2022/10/31 05:10:27;;;;;;;8.10;5.05;;;;;16.60;101847.00;;;;5047927;28;20370;-77
2022/10/31 05:12:56;;;;;;;6.57;5.35;;;;;16.60;101846.00;;;;5048166;28;20554;-77
2022/10/31 05:15:25;;;;;;;7.40;4.88;;;;;16.60;101841.00;;;;5049445;28;20243;-77
2022/10/31 05:17:53;;;;;;;7.85;5.40;;;;;16.60;101840.00;;;;5047735;28;20203;-78
2022/10/31 05:20:22;;;;;;;7.47;5.90;;;;;16.60;101840.00;;;;5059884;28;20188;-78
2022/10/31 05:22:51;;;;;;;8.35;5.80;;;;;16.70;101844.00;;;;5053299;28;20199;-77
2022/10/31 05:25:20;;;;;;;7.88;5.85;;;;;16.60;101837.00;;;;5047730;28;20203;-77
2022/10/31 05:27:51;;;;;;;8.35;6.15;;;;;16.60;101837.00;;;;5063513;28;20226;-77
2022/10/31 05:30:21;;;;;;;8.73;6.55;;;;;16.70;101831.00;;;;5060651;28;20202;-77
2022/10/31 05:32:50;;;;;;;10.23;6.05;;;;;16.70;101829.00;;;;5049278;28;21182;-78
2022/10/31 05:35:19;;;;;;;6.95;5.57;;;;;16.70;101831.00;;;;5064617;28;20232;-78
2022/10/31 05:37:46;;;;;;;9.35;6.22;;;;;16.70;101832.00;;;;5047329;28;20551;-78
2022/10/31 05:40:17;;;;;;;6.75;5.68;;;;;16.70;101830.00;;;;5052885;28;20562;-77
2022/10/31 05:42:45;;;;;;;8.13;6.18;;;;;16.70;101841.00;;;;5066448;28;20203;-77
2022/10/31 05:45:15;;;;;;;8.90;7.03;;;;;16.70;101839.00;;;;5052046;28;20199;-77
2022/10/31 05:47:43;;;;;;;10.13;6.93;;;;;16.80;101841.00;;;;5055560;28;20191;-78
2022/10/31 05:50:11;;;;;;;10.13;6.43;;;;;16.80;101832.00;;;;5057411;28;20192;-78
2022/10/31 05:52:38;;;;;;;9.50;6.80;;;;;16.80;101836.00;;;;5051976;28;20238;-78
2022/10/31 05:55:07;;;;;;;13.48;7.70;;;;;16.80;101831.00;;;;5068336;28;20230;-79
2022/10/31 05:57:34;;;;;;;11.13;7.32;;;;;16.80;101830.00;;;;5064945;28;20472;-79
2022/10/31 06:00:02;;;;;;;11.75;7.07;;;;;16.90;101819.00;;;;5053027;28;20199;-79
2022/10/31 06:02:34;;;;;;;10.02;6.75;;;;;16.90;101825.00;;;;5051171;28;20219;-79
2022/10/31 06:05:01;;;;;;;13.35;7.05;;;;;16.90;101824.00;;;;5054027;28;20565;-77
2022/10/31 06:07:33;;;;;;;12.52;6.70;;;;;16.90;101823.00;;;;5054074;28;20195;-77
2022/10/31 06:10:00;;;;;;;12.73;5.95;;;;;16.90;101830.00;;;;5059460;28;20806;-78
2022/10/31 06:12:28;;;;;;;15.45;6.15;;;;;17.00;101822.00;;;;5061189;28;20209;-78
2022/10/31 06:14:55;;;;;;;13.98;6.40;;;;;17.00;101819.00;;;;5055118;28;20750;-78
2022/10/31 06:17:22;;;;;;;13.25;6.65;;;;;17.00;101822.00;;;;5054230;28;20210;-77
2022/10/31 06:19:52;;;;;;;10.13;6.35;;;;;17.00;101824.00;;;;5052193;28;20191;-77
2022/10/31 06:22:19;;;;;;;10.15;5.50;;;;;17.00;101826.00;;;;5056459;28;20260;-77
2022/10/31 06:24:47;;;;;;;9.57;6.53;;;;;17.10;101816.00;;;;5049483;28;20284;-77
2022/10/31 06:27:14;;;;;;;16.55;6.97;;;;;17.10;101820.00;;;;5060229;28;20208;-77
2022/10/31 06:29:41;;;;;;;8.50;5.85;;;;;17.10;101811.00;;;;5059035;28;20199;-77
2022/10/31 06:32:11;;;;;;;8.65;6.15;;;;;17.10;101823.00;;;;5050134;28;20212;-77
2022/10/31 06:34:39;;;;;;;6.47;5.53;;;;;17.10;101824.00;;;;5057422;28;20231;-77
2022/10/31 06:37:08;;;;;;;6.68;5.43;;;;;17.10;101829.00;;;;5049955;28;20200;-76
2022/10/31 06:39:36;;;;;;;11.13;6.32;;;;;17.10;101833.00;;;;5050887;28;20198;-77
2022/10/31 06:42:04;;;;;;;7.35;5.65;;;;;17.20;101832.00;;;;5053746;28;20212;-76
2022/10/31 06:44:32;;;;;;;7.07;5.68;;;;;17.20;101830.00;;;;5054019;28;20200;-79
2022/10/31 06:46:59;;;;;;;10.80;5.55;;;;;17.20;101833.00;;;;5052719;28;20207;-78
2022/10/31 06:49:27;;;;;;;7.50;5.72;;;;;17.20;101826.00;;;;5049966;28;20287;-78
2022/10/31 06:51:54;;;;;;;6.45;5.00;;;;;17.20;101831.00;;;;5051484;28;20200;-78
2022/10/31 06:54:23;;;;;;;7.53;5.60;;;;;17.20;101829.00;;;;5057532;28;20232;-78
2022/10/31 06:56:50;;;;;;;9.52;5.15;;;;;17.20;101823.00;;;;5058483;28;20211;-78
2022/10/31 06:59:17;;;;;;;8.00;5.97;;;;;17.30;101835.00;;;;5066137;28;20195;-77
2022/10/31 07:01:45;;;;;;;7.50;5.50;;;;;17.30;101828.00;;;;5060260;28;20199;-78
2022/10/31 07:04:12;;;;;;;8.05;6.18;;;;;17.30;101836.00;;;;5048535;28;20188;-78
2022/10/31 07:06:40;;;;;;;6.82;5.00;;;;;17.30;101840.00;;;;5052354;28;20191;-78
2022/10/31 07:09:07;;;;;;;6.88;5.45;;;;;17.30;101834.00;;;;5049376;28;20219;-78
2022/10/31 07:11:36;;;;;;;6.78;5.53;;;;;17.30;101835.00;;;;5049129;28;20208;-78
2022/10/31 07:14:03;;;;;;;7.97;4.45;;;;;17.40;101840.00;;;;5050009;28;20222;-78
2022/10/31 07:16:30;;;;;;;7.57;5.60;;;;;17.40;101831.00;;;;5055763;28;20195;-78
2022/10/31 07:18:57;;;;;;;7.70;5.60;;;;;17.40;101823.00;;;;5060476;28;20540;-78
2022/10/31 07:21:25;;;;;;;7.25;6.07;;;;;17.40;101823.00;;;;5069083;28;20276;-78
2022/10/31 07:23:52;;;;;;;7.05;5.35;;;;;17.50;101826.00;;;;5055656;28;20636;-78
2022/10/31 07:26:19;;;;;;;8.88;5.93;;;;;17.50;101837.00;;;;5056825;28;20199;-77
2022/10/31 07:28:48;;;;;;;6.05;5.25;;;;;17.50;101834.00;;;;5062391;28;20187;-77
2022/10/31 07:31:16;;;;;;;7.82;5.45;;;;;17.50;101845.00;;;;5048522;28;20253;-78
2022/10/31 07:33:43;;;;;;;8.93;5.00;;;;;17.50;101843.00;;;;5050496;28;20605;-78
2022/10/31 07:36:10;;;;;;;10.00;5.47;;;;;17.50;101838.00;;;;5050139;28;20720;-78
2022/10/31 07:38:37;;;;;;;8.50;5.55;;;;;17.60;101836.00;;;;5047198;28;20202;-77
2022/10/31 07:41:05;;;;;;;9.00;5.60;;;;;17.60;101838.00;;;;5053687;28;20208;-77
2022/10/31 07:43:32;;;;;;;9.30;5.75;;;;;17.60;101842.00;;;;5053485;28;21092;-78
2022/10/31 07:46:01;;;;;;;6.75;5.53;;;;;17.60;101845.00;;;;5047818;28;20204;-77
2022/10/31 07:48:28;;;;;;;8.43;6.05;;;;;17.70;101856.00;;;;5058397;28;20200;-78
2022/10/31 07:50:56;;;;;;;9.40;6.10;;;;;17.70;101846.00;;;;5058655;28;20211;-78
2022/10/31 07:53:23;;;;;;;20.88;6.28;;;;;17.70;101848.00;;;;5049035;28;20211;-78
2022/10/31 07:55:51;;;;;;;8.88;6.00;;;;;17.70;101853.00;;;;5048142;28;20708;-78
2022/10/31 07:58:19;;;;;;;10.30;6.05;;;;;17.80;101850.00;;;;5048236;28;20744;-78
2022/10/31 08:00:47;;;;;;;9.18;6.15;;;;;17.80;101848.00;;;;5047486;28;20200;-77
2022/10/31 08:03:18;;;;;;;9.38;6.00;;;;;17.80;101858.00;;;;5053665;28;20187;-79
2022/10/31 08:05:46;;;;;;;9.80;7.20;;;;;17.80;101857.00;;;;5056180;28;20202;-78
2022/10/31 08:08:14;;;;;;;8.88;6.18;;;;;17.90;101869.00;;;;5064322;28;20736;-78
2022/10/31 08:10:41;;;;;;;7.47;6.32;;;;;17.90;101860.00;;;;5068701;28;20198;-78
2022/10/31 08:13:11;;;;;;;10.07;7.07;;;;;17.90;101859.00;;;;5063777;28;20207;-78
2022/10/31 08:15:41;;;;;;;8.57;6.88;;;;;18.00;101858.00;;;;5068504;28;20218;-78
2022/10/31 08:18:12;;;;;;;11.55;7.55;;;;;18.00;101855.00;;;;5058456;28;20198;-78
2022/10/31 08:20:41;;;;;;;9.05;6.35;;;;;18.00;101856.00;;;;5055343;28;20203;-78
2022/10/31 08:23:09;;;;;;;9.43;7.28;;;;;18.10;101857.00;;;;5047860;28;20665;-79
2022/10/31 08:25:37;;;;;;;10.48;7.25;;;;;18.10;101848.00;;;;5048114;28;20195;-79
2022/10/31 08:28:05;;;;;;;9.43;7.45;;;;;18.20;101850.00;;;;5047607;28;20196;-78
2022/10/31 08:30:34;;;;;;;9.57;7.28;;;;;18.20;101850.00;;;;5045072;28;20223;-78
2022/10/31 08:33:03;;;;;;;12.70;8.38;;;;;18.30;101853.00;;;;5046279;28;20200;-79
2022/10/31 08:35:31;;;;;;;11.48;7.60;;;;;18.30;101856.00;;;;5053341;28;20231;-79
2022/10/31 08:38:01;;;;;;;11.18;8.13;;;;;18.40;101853.00;;;;5051467;28;20676;-78
2022/10/31 08:40:29;;;;;;;9.25;7.00;;;;;18.40;101847.00;;;;5047902;28;20242;-78
2022/10/31 08:43:04;;;;;;;10.10;7.97;;;;;18.40;101849.00;;;;5047509;28;21299;-78
2022/10/31 08:45:33;;;;;;;10.00;7.45;;;;;18.40;101851.00;;;;5057847;28;20209;-78
2022/10/31 08:48:01;;;;;;;10.82;8.40;;;;;18.50;101844.00;;;;5068124;28;20214;-79
2022/10/31 08:50:30;;;;;;;14.98;8.77;;;;;18.50;101835.00;;;;5067053;28;20206;-78
2022/10/31 08:53:03;;;;;;;12.60;7.65;;;;;18.50;101830.00;;;;5063156;28;20195;-78
2022/10/31 08:55:30;;;;;;;10.43;8.10;;;;;18.60;101834.00;;;;5052454;28;20220;-78
2022/10/31 08:57:58;;;;;;;12.43;8.65;;;;;18.70;101837.00;;;;5060672;28;20198;-79
2022/10/31 09:00:26;;;;;;;10.88;8.25;;;;;18.70;101835.00;;;;5050341;28;20204;-78
2022/10/31 09:02:57;;;;;;;11.63;8.70;;;;;18.70;101830.00;;;;5051576;28;20684;-78
2022/10/31 09:05:26;;;;;;;12.40;8.07;;;;;18.80;101836.00;;;;5049697;28;20321;-79
2022/10/31 09:07:57;;;;;;;10.45;7.53;;;;;18.80;101833.00;;;;5048265;28;20203;-78
2022/10/31 09:10:26;;;;;;;11.43;9.07;;;;;18.90;101834.00;;;;5047187;28;20222;-78
2022/10/31 09:12:57;;;;;;;14.85;10.05;;;;;19.00;101827.00;;;;5055862;28;20199;-78
2022/10/31 09:15:24;;;;;;;13.13;8.95;;;;;19.10;101825.00;;;;5065354;28;20307;-79
2022/10/31 09:17:52;;;;;;;13.90;9.40;;;;;19.10;101812.00;;;;5069990;28;20202;-79
2022/10/31 09:20:19;;;;;;;12.93;8.85;;;;;19.20;101812.00;;;;5051991;28;20195;-79
2022/10/31 09:22:47;;;;;;;11.52;8.75;;;;;19.30;101804.00;;;;5061739;28;20223;-79
2022/10/31 09:25:14;;;;;;;11.90;8.88;;;;;19.30;101793.00;;;;5060765;28;20206;-77
2022/10/31 09:27:43;;;;;;;12.45;8.85;;;;;19.40;101792.00;;;;5052418;28;20206;-78
2022/10/31 09:30:11;;;;;;;12.02;8.35;;;;;19.40;101781.00;;;;5059945;28;20202;-78
2022/10/31 09:32:38;;;;;;;10.43;8.32;;;;;19.50;101783.00;;;;5050926;28;20649;-78
2022/10/31 09:35:06;;;;;;;9.85;8.13;;;;;19.50;101789.00;;;;5050386;28;20235;-78
2022/10/31 09:37:34;;;;;;;9.80;7.78;;;;;19.60;101797.00;;;;5058346;28;20716;-77
2022/10/31 09:40:01;;;;;;;11.63;8.70;;;;;19.70;101800.00;;;;5069333;28;20211;-77
2022/10/31 09:42:53;;;;;;;12.07;9.07;;;;;19.60;101791.00;;;;5068963;28;20210;-78
2022/10/31 09:45:27;;;;;;;11.45;8.38;;;;;19.80;101791.00;;;;5058339;28;20211;-78
2022/10/31 09:48:08;;;;;;;13.73;7.80;;;;;19.80;101790.00;;;;5068698;28;20203;-78
2022/10/31 09:50:42;;;;;;;11.40;8.32;;;;;19.90;101795.00;;;;5069767;28;20191;-78
2022/10/31 09:53:23;;;;;;;11.30;7.90;;;;;20.00;101792.00;;;;5070813;28;20199;-78
2022/10/31 09:55:52;;;;;;;11.35;7.82;;;;;20.10;101777.00;;;;5070735;28;20237;-78
2022/10/31 09:58:24;;;;;;;10.02;7.72;;;;;20.20;101777.00;;;;5070459;28;20191;-77
2022/10/31 10:00:52;;;;;;;11.18;8.13;;;;;20.30;101768.00;;;;5055514;28;20206;-78
2022/10/31 10:03:30;;;;;;;10.25;7.45;;;;;20.40;101773.00;;;;5056043;28;20199;-79
2022/10/31 10:06:07;;;;;;;10.15;7.82;;;;;20.50;101766.00;;;;5071471;28;20202;-79
2022/10/31 10:08:36;;;;;;;10.65;8.73;;;;;20.60;101769.00;;;;5069022;28;20566;-79
2022/10/31 10:11:20;;;;;;;11.55;8.02;;;;;20.60;101762.00;;;;5070545;28;20214;-79
2022/10/31 10:14:02;;;;;;;13.10;7.78;;;;;20.70;101761.00;;;;5069987;28;20203;-79
2022/10/31 10:16:43;;;;;;;9.40;7.78;;;;;20.70;101766.00;;;;5064550;28;20249;-78
2022/10/31 10:19:25;;;;;;;11.07;7.35;;;;;20.80;101764.00;;;;5049052;28;20218;-78
2022/10/31 10:21:59;;;;;;;9.25;7.07;;;;;20.90;101758.00;;;;5067960;28;20206;-79
2022/10/31 10:24:36;;;;;;;11.27;7.97;;;;;20.90;101757.00;;;;5067912;28;20205;-79
2022/10/31 10:27:14;;;;;;;9.02;7.35;;;;;21.00;101752.00;;;;5068184;28;20213;-79
2022/10/31 10:29:51;;;;;;;9.15;7.13;;;;;21.00;101762.00;;;;5068984;28;20186;-79
2022/10/31 10:32:23;;;;;;;10.18;6.03;;;;;21.00;101748.00;;;;5051854;28;20195;-78
2022/10/31 10:34:54;;;;;;;9.10;6.63;;;;;21.10;101754.00;;;;5047200;28;20231;-79
2022/10/31 10:37:28;;;;;;;10.35;7.38;;;;;21.10;101748.00;;;;5057769;28;20226;-79
2022/10/31 10:40:08;;;;;;;8.05;6.38;;;;;21.20;101741.00;;;;5048937;28;20201;-79
2022/10/31 10:48:13;;;;;;;10.63;7.65;;;;;21.30;101705.00;;;;5051039;28;20199;-79
2022/10/31 10:50:47;;;;;;;9.60;8.00;;;;;21.30;101702.00;;;;5053061;28;20195;-79
2022/10/31 10:53:32;;;;;;;13.98;7.97;;;;;21.30;101701.00;;;;5063522;28;20199;-79
2022/10/31 10:56:08;;;;;;;11.25;7.18;;;;;21.40;101697.00;;;;5052095;28;20288;-79
2022/10/31 10:58:37;;;;;;;11.23;7.30;;;;;21.50;101693.00;;;;5057802;28;20206;-79
2022/10/31 11:01:12;;;;;;;14.02;8.00;;;;;21.40;101682.00;;;;5049040;28;20202;-79
2022/10/31 11:03:39;;;;;;;9.80;7.80;;;;;21.50;101670.00;;;;5050207;28;20203;-79
2022/10/31 11:06:21;;;;;;;14.70;8.27;;;;;21.50;101667.00;;;;5053803;28;20219;-79
2022/10/31 11:08:49;;;;;;;10.15;8.10;;;;;21.60;101666.00;;;;5049644;28;20535;-79
2022/10/31 11:11:26;;;;;;;12.30;8.25;;;;;21.50;101682.00;;;;5062086;28;20207;-79
2022/10/31 11:13:58;;;;;;;11.55;7.18;;;;;21.60;101681.00;;;;5048058;28;20223;-79
2022/10/31 11:16:34;;;;;;;11.63;7.65;;;;;21.60;101680.00;;;;5047144;28;20231;-79
2022/10/31 11:19:15;;;;;;;11.98;8.52;;;;;21.60;101688.00;;;;5052931;28;20665;-79
2022/10/31 11:21:44;;;;;;;11.45;7.35;;;;;21.70;101686.00;;;;5054626;28;20191;-79
2022/10/31 11:24:17;;;;;;;11.77;8.15;;;;;21.70;101683.00;;;;5054163;28;20561;-80
2022/10/31 11:26:46;;;;;;;11.65;8.75;;;;;21.80;101662.00;;;;5066860;28;20252;-79
2022/10/31 11:29:16;;;;;;;12.45;7.97;;;;;21.80;101649.00;;;;5053778;28;20222;-78
2022/10/31 11:31:48;;;;;;;10.82;7.53;;;;;21.80;101652.00;;;;5066928;28;20211;-79
2022/10/31 11:34:27;;;;;;;13.00;7.80;;;;;21.80;101643.00;;;;5048254;28;20227;-79
2022/10/31 11:36:54;;;;;;;18.52;8.23;;;;;21.90;101651.00;;;;5062672;28;20226;-79
2022/10/31 11:39:24;;;;;;;14.60;8.50;;;;;21.90;101637.00;;;;5065677;28;20211;-80
2022/10/31 11:41:53;;;;;;;15.50;8.52;;;;;21.90;101639.00;;;;5048348;28;20203;-79
2022/10/31 11:44:23;;;;;;;16.58;8.32;;;;;21.90;101643.00;;;;5056731;28;20195;-79
2022/10/31 11:46:54;;;;;;;12.43;8.32;;;;;21.90;101621.00;;;;5062110;28;20775;-79
2022/10/31 11:49:31;;;;;;;12.77;8.18;;;;;21.90;101616.00;;;;5051464;28;20200;-79
2022/10/31 11:52:02;;;;;;;11.30;7.93;;;;;22.00;101599.00;;;;5048228;28;20199;-79
2022/10/31 11:54:34;;;;;;;15.02;7.55;;;;;21.90;101587.00;;;;5047431;28;20202;-79
2022/10/31 11:57:02;;;;;;;16.02;9.13;;;;;22.00;101583.00;;;;5047756;28;20238;-79
2022/10/31 11:59:31;;;;;;;13.38;8.27;;;;;22.00;101563.00;;;;5046151;28;20246;-78
2022/10/31 12:02:01;;;;;;;18.52;9.68;;;;;22.00;101563.00;;;;5047005;28;20666;-79
2022/10/31 12:04:38;;;;;;;16.25;9.55;;;;;21.90;101579.00;;;;5046792;28;20371;-79
2022/10/31 12:07:05;;;;;;;16.35;8.85;;;;;22.00;101565.00;;;;5046730;28;20222;-78
2022/10/31 12:09:36;;;;;;;12.65;8.77;;;;;21.90;101564.00;;;;5046399;28;20202;-78
2022/10/31 12:12:20;;;;;;;17.77;10.13;;;;;21.90;101549.00;;;;5046990;28;20508;-79
2022/10/31 12:15:01;;;;;;;17.38;8.80;;;;;21.90;101547.00;;;;5049072;28;20206;-78
2022/10/31 12:17:35;;;;;;;19.73;9.40;;;;;21.90;101545.00;;;;5048370;28;20515;-78
2022/10/31 12:20:17;;;;;;;14.93;9.15;;;;;21.90;101541.00;;;;5048732;28;20219;-78
2022/10/31 12:23:02;;;;;;;13.25;9.45;;;;;22.00;101535.00;;;;5048043;28;20748;-78
2022/10/31 12:25:42;;;;;;;16.38;9.68;;;;;22.00;101526.00;;;;5048637;28;20199;-78
2022/10/31 12:28:34;;;;;;;15.18;9.68;;;;;22.00;101511.00;;;;5048949;28;20199;-78